Terminal Aerodrome Forecast
Issued by NWS Wichita, KS

Home | Current Version | Previous Version | Text Only | Print | Product List | Glossary On
Versions: 1 2 3 4 5 6 7 8 9 10 11 12 13 14 15 16 17 18
000
FTUS43 KICT 271726
TAFICT
TAF
KICT 271726Z 2718/2818 07019G29KT P6SM SCT080 OVC150
     FM272300 06015KT P6SM SCT120 BKN200
     FM280200 03007KT P6SM BKN150
     FM280900 36006KT P6SM SCT100=

USA.gov is the U.S. government's official web portal to all federal, state and local government web resources and services.